Arcata Airport
KACV : now visible

Airfield :











YOU CAN JOIN US ON...

 
LOGIN :

Register | Disclaimer

   EN    FR    IT 

 









Legend :    VFR   Marginal VFR   IFR   Intensive IFR   Very Intensive IFR
Visi :
Ceiling :
>= 8 km
>= 3000ft
5 to 8 km
1000 to 3000 ft
1500m to 5 km
500 to 1000 ft
800 to 1500m
200 to 500 ft
< 800m
< 200 ft
Symbols :   Thunderstorms  Fog  Heavy snow  Heavy precipitations  Wind > 20 kt






- Airport Elevation : 221 ft
- IATA code : ACV


KACV - Arcata

CURRENT METAR :
  • 150316Z AUTO 10005KT 10SM FEW008 SCT022 BKN042 07/04 A3001 RMK AO2 RAE0254 P0000 T00670044

EXPIRED METARs :
  • 150258Z AUTO 04004KT 10SM FEW007 BKN023 OVC040 07/05 A3002 RMK AO2 RAE54 P0000 T00670050
  • 150253Z AUTO 00000KT 10SM -RA SCT024 BKN030 OVC042 07/05 A3002 RMK AO2 RAB18 SLP172 P0002 60007 T00670050 51010
  • 150153Z AUTO 09004KT 10SM FEW055 06/04 A3000 RMK AO2 RAE07 SLP167 P0000 T00560044
  • 150127Z AUTO 00000KT 10SM SCT029 06/04 A3000 RMK AO2 RAE07 P0000 T00610044
  • 150053Z AUTO 00000KT 6SM -RA BR BKN027 OVC037 07/05 A3001 RMK AO2 RAB13 SLP169 P0005 T00720050
  • 150031Z AUTO 14004KT 4SM -RA SCT029 BKN038 OVC060 07/04 A3000 RMK AO2 RAB13 P0004 T00720044

TAF KACV
Valid from the 15 at 02:00 until the 16 at 00:00 UTC


150133Z 1502/1524 VRB04KT P6SM VCTS BKN029CB
TEMPO 1502/1503 2SM RA BR SCT015 BKN025
FM150500 VRB05KT 5SM -SHRA BR SCT015 BKN025 OVC035
FM150800 VRB05KT P6SM VCSH SCT025 BKN040
FM151500 VRB03KT P6SM SCT030 BKN050



MET'MAP, your aeronautical weather chart ! - Copyright ORBIFLY December 2007 - Disclaimer

ORBIFLY MET'MAP TEAM :

Programming & Development : Alexandra Zaïnal
Concept & original design : Baudouin d'Aumeries
Assistance for programming : Marc-Olivier Méhu
Technical & hardware support : Manuel Goepfert

Contact : metmap@orbifly.com




SOURCES & CREDITS :

   NOAA       Earth
Advisory